Airfield :
LOGIN :

Register | Disclaimer

   EN    FR    IT 

 










Legend :    VFR   Marginal VFR   IFR   Intensive IFR   Very Intensive IFR
Visi :
Ceiling :
>= 8 km
>= 3000ft
5 to 8 km
1000 to 3000 ft
1500m to 5 km
500 to 1000 ft
800 to 1500m
200 to 500 ft
< 800m
< 200 ft
Symbols :   Thunderstorms  Fog  Heavy snow  Heavy precipitations  Wind > 20 kt
SIGMETs :     Misc.  Thunderstorms  Icing  Turbulence  Mountain Waves  Volcanic Ashes






- Airport Elevation : 147 ft
- IATA code : DUS


EDDL - Düsseldorf Int.

CURRENT METAR :
  • 052350Z 02003KT CAVOK 01/M00 Q1001 NOSIG

EXPIRED METARs :
  • 052320Z 07001KT CAVOK 00/M01 Q1002 NOSIG
  • 052250Z 02005KT CAVOK 01/M00 Q1001 NOSIG
  • 052220Z VRB02KT CAVOK 00/M01 Q1002 NOSIG
  • 052150Z 12003KT CAVOK 00/M01 Q1001 NOSIG
  • 052120Z 10004KT CAVOK 01/M00 Q1001 NOSIG

TAF TAF EDDL
Valid from the 06 at 00:00 until the 07 at 06:00 UTC


052300Z 0600/0706 VRB03KT CAVOK
PROB30
TEMPO 0608/0618 4000 BR
BECMG 0608/0611 35006KT
TEMPO 0612/0615 BKN012
BECMG 0615/0618 BKN008
TEMPO 0616/0706 2000 RA BKN007
BECMG 0623/0702 26006KT
PROB30
TEMPO 0702/0706 0700 +RASN FG BKN003
BECMG 0703/0706 20010KT



MET'MAP, your aeronautical weather chart ! - Copyright ORBIFLY December 2007 - Disclaimer

ORBIFLY MET'MAP TEAM :

Programming & Development : Alexandra Zaïnal
Concept & original design : Baudouin d'Aumeries
Assistance for programming : Marc-Olivier Méhu
Technical & hardware support : Manuel Goepfert

Contact : metmap@orbifly.com




SOURCES & CREDITS :

   NOAA